sensor_id;sensor_type;location;lat;lon;timestamp;P1;durP1;ratioP1;P2;durP2;ratioP2
77944;SDS011;67142;47.404;-1.384;2023-04-24T00:01:35;18.00;;;14.60;;
77944;SDS011;67142;47.404;-1.384;2023-04-24T00:04:02;16.10;;;14.43;;
77944;SDS011;67142;47.404;-1.384;2023-04-24T00:06:28;15.93;;;14.10;;
77944;SDS011;67142;47.404;-1.384;2023-04-24T00:09:02;15.88;;;14.27;;
77944;SDS011;67142;47.404;-1.384;2023-04-24T00:11:28;15.77;;;14.27;;
77944;SDS011;67142;47.404;-1.384;2023-04-24T00:13:55;15.48;;;14.00;;
77944;SDS011;67142;47.404;-1.384;2023-04-24T00:16:21;15.63;;;14.25;;
77944;SDS011;67142;47.404;-1.384;2023-04-24T00:18:47;16.05;;;14.55;;
77944;SDS011;67142;47.404;-1.384;2023-04-24T00:21:14;20.42;;;15.43;;
77944;SDS011;67142;47.404;-1.384;2023-04-24T00:23:41;16.27;;;14.57;;
77944;SDS011;67142;47.404;-1.384;2023-04-24T00:26:07;16.58;;;14.80;;
77944;SDS011;67142;47.404;-1.384;2023-04-24T00:28:33;15.88;;;14.38;;
77944;SDS011;67142;47.404;-1.384;2023-04-24T00:30:59;16.88;;;14.45;;
77944;SDS011;67142;47.404;-1.384;2023-04-24T00:33:25;16.70;;;13.65;;
77944;SDS011;67142;47.404;-1.384;2023-04-24T00:35:51;16.10;;;14.40;;
77944;SDS011;67142;47.404;-1.384;2023-04-24T00:38:17;18.38;;;14.70;;
77944;SDS011;67142;47.404;-1.384;2023-04-24T00:40:43;15.70;;;14.07;;
77944;SDS011;67142;47.404;-1.384;2023-04-24T00:43:09;18.27;;;14.13;;
77944;SDS011;67142;47.404;-1.384;2023-04-24T00:45:35;19.23;;;14.80;;
77944;SDS011;67142;47.404;-1.384;2023-04-24T00:48:01;16.63;;;14.47;;
77944;SDS011;67142;47.404;-1.384;2023-04-24T00:50:28;16.35;;;14.55;;
77944;SDS011;67142;47.404;-1.384;2023-04-24T00:52:54;16.55;;;14.15;;
77944;SDS011;67142;47.404;-1.384;2023-04-24T00:55:20;14.88;;;13.40;;
77944;SDS011;67142;47.404;-1.384;2023-04-24T00:57:46;17.73;;;14.02;;
77944;SDS011;67142;47.404;-1.384;2023-04-24T01:00:12;16.27;;;13.77;;
77944;SDS011;67142;47.404;-1.384;2023-04-24T01:02:39;20.40;;;14.00;;
77944;SDS011;67142;47.404;-1.384;2023-04-24T01:05:10;17.38;;;14.52;;
77944;SDS011;67142;47.404;-1.384;2023-04-24T01:07:37;15.98;;;13.90;;
77944;SDS011;67142;47.404;-1.384;2023-04-24T01:10:04;15.90;;;14.15;;
77944;SDS011;67142;47.404;-1.384;2023-04-24T01:12:30;19.43;;;14.77;;
77944;SDS011;67142;47.404;-1.384;2023-04-24T01:14:56;16.98;;;14.52;;
77944;SDS011;67142;47.404;-1.384;2023-04-24T01:17:22;15.95;;;14.45;;
77944;SDS011;67142;47.404;-1.384;2023-04-24T01:19:48;16.02;;;14.30;;
77944;SDS011;67142;47.404;-1.384;2023-04-24T01:22:14;17.25;;;14.55;;
77944;SDS011;67142;47.404;-1.384;2023-04-24T01:24:42;15.93;;;14.30;;
77944;SDS011;67142;47.404;-1.384;2023-04-24T01:27:09;17.35;;;14.63;;
77944;SDS011;67142;47.404;-1.384;2023-04-24T01:29:35;17.75;;;15.45;;
77944;SDS011;67142;47.404;-1.384;2023-04-24T01:32:02;17.95;;;13.88;;
77944;SDS011;67142;47.404;-1.384;2023-04-24T01:34:28;17.73;;;14.30;;
77944;SDS011;67142;47.404;-1.384;2023-04-24T01:36:54;21.40;;;14.10;;
77944;SDS011;67142;47.404;-1.384;2023-04-24T01:39:21;16.75;;;14.35;;
77944;SDS011;67142;47.404;-1.384;2023-04-24T01:41:51;15.35;;;13.82;;
77944;SDS011;67142;47.404;-1.384;2023-04-24T01:44:17;17.02;;;14.07;;
77944;SDS011;67142;47.404;-1.384;2023-04-24T01:46:43;20.13;;;14.63;;
77944;SDS011;67142;47.404;-1.384;2023-04-24T01:49:09;20.53;;;14.17;;
77944;SDS011;67142;47.404;-1.384;2023-04-24T01:51:36;18.83;;;13.95;;
77944;SDS011;67142;47.404;-1.384;2023-04-24T01:54:02;16.77;;;14.43;;
77944;SDS011;67142;47.404;-1.384;2023-04-24T01:56:29;16.88;;;13.60;;
77944;SDS011;67142;47.404;-1.384;2023-04-24T01:58:55;19.00;;;14.13;;
77944;SDS011;67142;47.404;-1.384;2023-04-24T02:01:23;20.47;;;14.43;;
77944;SDS011;67142;47.404;-1.384;2023-04-24T02:03:50;16.80;;;13.32;;
77944;SDS011;67142;47.404;-1.384;2023-04-24T02:06:16;15.88;;;14.05;;
77944;SDS011;67142;47.404;-1.384;2023-04-24T02:08:42;17.50;;;14.13;;
77944;SDS011;67142;47.404;-1.384;2023-04-24T02:11:11;17.52;;;14.02;;
77944;SDS011;67142;47.404;-1.384;2023-04-24T02:13:37;17.87;;;13.63;;
77944;SDS011;67142;47.404;-1.384;2023-04-24T02:16:03;19.42;;;14.57;;
77944;SDS011;67142;47.404;-1.384;2023-04-24T02:18:29;21.25;;;14.43;;
77944;SDS011;67142;47.404;-1.384;2023-04-24T02:20:55;19.55;;;14.07;;
77944;SDS011;67142;47.404;-1.384;2023-04-24T02:23:21;23.77;;;14.70;;
77944;SDS011;67142;47.404;-1.384;2023-04-24T02:25:47;16.83;;;13.53;;
77944;SDS011;67142;47.404;-1.384;2023-04-24T02:28:13;16.08;;;13.88;;
77944;SDS011;67142;47.404;-1.384;2023-04-24T02:30:39;15.23;;;13.73;;
77944;SDS011;67142;47.404;-1.384;2023-04-24T02:33:05;18.40;;;13.80;;
77944;SDS011;67142;47.404;-1.384;2023-04-24T02:35:32;18.77;;;13.70;;
77944;SDS011;67142;47.404;-1.384;2023-04-24T02:37:58;20.33;;;13.90;;
77944;SDS011;67142;47.404;-1.384;2023-04-24T02:40:24;20.98;;;15.27;;
77944;SDS011;67142;47.404;-1.384;2023-04-24T02:42:50;17.20;;;14.32;;
77944;SDS011;67142;47.404;-1.384;2023-04-24T02:45:16;18.63;;;13.93;;
77944;SDS011;67142;47.404;-1.384;2023-04-24T02:47:42;16.48;;;13.85;;
77944;SDS011;67142;47.404;-1.384;2023-04-24T02:50:08;16.00;;;14.50;;
77944;SDS011;67142;47.404;-1.384;2023-04-24T02:52:35;17.33;;;13.88;;
77944;SDS011;67142;47.404;-1.384;2023-04-24T02:55:01;17.45;;;13.60;;
77944;SDS011;67142;47.404;-1.384;2023-04-24T02:57:27;19.40;;;13.55;;
77944;SDS011;67142;47.404;-1.384;2023-04-24T02:59:53;18.52;;;14.20;;
77944;SDS011;67142;47.404;-1.384;2023-04-24T03:02:19;19.87;;;14.40;;
77944;SDS011;67142;47.404;-1.384;2023-04-24T03:04:45;18.23;;;14.07;;
77944;SDS011;67142;47.404;-1.384;2023-04-24T03:07:13;18.92;;;14.23;;
77944;SDS011;67142;47.404;-1.384;2023-04-24T03:09:39;18.80;;;14.15;;
77944;SDS011;67142;47.404;-1.384;2023-04-24T03:12:05;15.90;;;13.85;;
77944;SDS011;67142;47.404;-1.384;2023-04-24T03:14:32;17.67;;;14.07;;
77944;SDS011;67142;47.404;-1.384;2023-04-24T03:16:58;16.83;;;13.95;;
77944;SDS011;67142;47.404;-1.384;2023-04-24T03:19:24;16.90;;;13.90;;
77944;SDS011;67142;47.404;-1.384;2023-04-24T03:21:50;19.70;;;13.95;;
77944;SDS011;67142;47.404;-1.384;2023-04-24T03:24:16;15.52;;;13.50;;
77944;SDS011;67142;47.404;-1.384;2023-04-24T03:26:42;16.27;;;13.70;;
77944;SDS011;67142;47.404;-1.384;2023-04-24T03:29:08;16.90;;;13.75;;
77944;SDS011;67142;47.404;-1.384;2023-04-24T03:31:34;18.80;;;14.35;;
77944;SDS011;67142;47.404;-1.384;2023-04-24T03:34:00;22.75;;;13.90;;
77944;SDS011;67142;47.404;-1.384;2023-04-24T03:36:26;18.13;;;13.65;;
77944;SDS011;67142;47.404;-1.384;2023-04-24T03:38:52;20.27;;;14.00;;
77944;SDS011;67142;47.404;-1.384;2023-04-24T03:41:18;20.05;;;14.35;;
77944;SDS011;67142;47.404;-1.384;2023-04-24T03:43:44;17.40;;;13.93;;
77944;SDS011;67142;47.404;-1.384;2023-04-24T03:46:10;15.80;;;13.70;;
77944;SDS011;67142;47.404;-1.384;2023-04-24T03:48:36;17.88;;;13.75;;
77944;SDS011;67142;47.404;-1.384;2023-04-24T03:51:03;18.13;;;13.80;;
77944;SDS011;67142;47.404;-1.384;2023-04-24T03:53:29;19.40;;;14.20;;
77944;SDS011;67142;47.404;-1.384;2023-04-24T03:55:55;21.17;;;13.93;;
77944;SDS011;67142;47.404;-1.384;2023-04-24T03:58:21;20.13;;;13.85;;
77944;SDS011;67142;47.404;-1.384;2023-04-24T04:00:47;18.98;;;14.38;;
77944;SDS011;67142;47.404;-1.384;2023-04-24T04:03:13;16.07;;;13.50;;
77944;SDS011;67142;47.404;-1.384;2023-04-24T04:05:39;20.98;;;15.15;;
77944;SDS011;67142;47.404;-1.384;2023-04-24T04:08:05;19.40;;;14.30;;
77944;SDS011;67142;47.404;-1.384;2023-04-24T04:10:31;22.73;;;13.85;;
77944;SDS011;67142;47.404;-1.384;2023-04-24T04:12:57;18.42;;;14.43;;
77944;SDS011;67142;47.404;-1.384;2023-04-24T04:15:23;18.77;;;13.90;;
77944;SDS011;67142;47.404;-1.384;2023-04-24T04:17:50;19.63;;;13.80;;
77944;SDS011;67142;47.404;-1.384;2023-04-24T04:20:16;19.13;;;14.60;;
77944;SDS011;67142;47.404;-1.384;2023-04-24T04:22:42;19.08;;;13.80;;
77944;SDS011;67142;47.404;-1.384;2023-04-24T04:25:08;20.88;;;14.43;;
77944;SDS011;67142;47.404;-1.384;2023-04-24T04:27:34;19.73;;;13.70;;
77944;SDS011;67142;47.404;-1.384;2023-04-24T04:30:01;16.27;;;13.65;;
77944;SDS011;67142;47.404;-1.384;2023-04-24T04:32:30;18.35;;;14.88;;
77944;SDS011;67142;47.404;-1.384;2023-04-24T04:34:56;17.60;;;13.65;;
77944;SDS011;67142;47.404;-1.384;2023-04-24T04:37:22;17.38;;;13.88;;
77944;SDS011;67142;47.404;-1.384;2023-04-24T04:39:48;18.63;;;13.47;;
77944;SDS011;67142;47.404;-1.384;2023-04-24T04:42:14;17.85;;;14.20;;
77944;SDS011;67142;47.404;-1.384;2023-04-24T04:44:40;15.05;;;13.40;;
77944;SDS011;67142;47.404;-1.384;2023-04-24T04:47:06;21.27;;;14.45;;
77944;SDS011;67142;47.404;-1.384;2023-04-24T04:49:32;24.98;;;14.10;;
77944;SDS011;67142;47.404;-1.384;2023-04-24T04:51:59;16.40;;;13.50;;
77944;SDS011;67142;47.404;-1.384;2023-04-24T04:54:25;21.40;;;14.00;;
77944;SDS011;67142;47.404;-1.384;2023-04-24T04:56:51;20.05;;;13.50;;
77944;SDS011;67142;47.404;-1.384;2023-04-24T04:59:17;17.42;;;13.45;;
77944;SDS011;67142;47.404;-1.384;2023-04-24T05:01:43;18.85;;;14.55;;
77944;SDS011;67142;47.404;-1.384;2023-04-24T05:04:09;17.13;;;14.00;;
77944;SDS011;67142;47.404;-1.384;2023-04-24T05:06:35;19.42;;;15.05;;
77944;SDS011;67142;47.404;-1.384;2023-04-24T05:09:01;19.02;;;14.35;;
77944;SDS011;67142;47.404;-1.384;2023-04-24T05:11:28;17.75;;;15.07;;
77944;SDS011;67142;47.404;-1.384;2023-04-24T05:13:55;18.77;;;14.40;;
77944;SDS011;67142;47.404;-1.384;2023-04-24T05:16:21;16.57;;;14.37;;
77944;SDS011;67142;47.404;-1.384;2023-04-24T05:18:47;23.02;;;14.45;;
77944;SDS011;67142;47.404;-1.384;2023-04-24T05:21:13;19.48;;;14.15;;
77944;SDS011;67142;47.404;-1.384;2023-04-24T05:23:39;21.15;;;14.30;;
77944;SDS011;67142;47.404;-1.384;2023-04-24T05:26:05;20.52;;;14.40;;
77944;SDS011;67142;47.404;-1.384;2023-04-24T05:28:31;20.80;;;13.90;;
77944;SDS011;67142;47.404;-1.384;2023-04-24T05:30:57;22.60;;;14.90;;
77944;SDS011;67142;47.404;-1.384;2023-04-24T05:33:24;17.95;;;14.07;;
77944;SDS011;67142;47.404;-1.384;2023-04-24T05:35:50;20.98;;;13.90;;
77944;SDS011;67142;47.404;-1.384;2023-04-24T05:38:16;17.83;;;14.40;;
77944;SDS011;67142;47.404;-1.384;2023-04-24T05:40:44;23.40;;;14.73;;
77944;SDS011;67142;47.404;-1.384;2023-04-24T05:43:10;19.00;;;14.07;;
77944;SDS011;67142;47.404;-1.384;2023-04-24T05:45:36;17.17;;;14.32;;
77944;SDS011;67142;47.404;-1.384;2023-04-24T05:48:03;24.15;;;15.07;;
77944;SDS011;67142;47.404;-1.384;2023-04-24T05:50:29;23.75;;;14.60;;
77944;SDS011;67142;47.404;-1.384;2023-04-24T05:52:55;21.43;;;13.53;;
77944;SDS011;67142;47.404;-1.384;2023-04-24T05:55:24;19.42;;;14.20;;
77944;SDS011;67142;47.404;-1.384;2023-04-24T05:57:51;19.92;;;14.30;;
77944;SDS011;67142;47.404;-1.384;2023-04-24T06:00:17;22.63;;;14.70;;
77944;SDS011;67142;47.404;-1.384;2023-04-24T06:02:44;23.10;;;15.40;;
77944;SDS011;67142;47.404;-1.384;2023-04-24T06:05:11;18.03;;;14.20;;
77944;SDS011;67142;47.404;-1.384;2023-04-24T06:07:37;18.42;;;14.88;;
77944;SDS011;67142;47.404;-1.384;2023-04-24T06:10:03;17.77;;;14.57;;
77944;SDS011;67142;47.404;-1.384;2023-04-24T06:12:29;19.77;;;13.80;;
77944;SDS011;67142;47.404;-1.384;2023-04-24T06:14:56;18.67;;;14.10;;
77944;SDS011;67142;47.404;-1.384;2023-04-24T06:17:22;17.23;;;14.00;;
77944;SDS011;67142;47.404;-1.384;2023-04-24T06:19:48;21.98;;;14.10;;
77944;SDS011;67142;47.404;-1.384;2023-04-24T06:22:14;17.65;;;14.75;;
77944;SDS011;67142;47.404;-1.384;2023-04-24T06:24:40;17.67;;;14.63;;
77944;SDS011;67142;47.404;-1.384;2023-04-24T06:27:06;18.10;;;14.20;;
77944;SDS011;67142;47.404;-1.384;2023-04-24T06:29:33;21.13;;;14.63;;
77944;SDS011;67142;47.404;-1.384;2023-04-24T06:31:59;21.20;;;14.63;;
77944;SDS011;67142;47.404;-1.384;2023-04-24T06:34:25;17.95;;;14.75;;
77944;SDS011;67142;47.404;-1.384;2023-04-24T06:36:51;16.38;;;14.68;;
77944;SDS011;67142;47.404;-1.384;2023-04-24T06:39:17;15.82;;;14.23;;
77944;SDS011;67142;47.404;-1.384;2023-04-24T06:41:43;16.63;;;13.77;;
77944;SDS011;67142;47.404;-1.384;2023-04-24T06:44:09;20.35;;;14.45;;
77944;SDS011;67142;47.404;-1.384;2023-04-24T06:46:35;18.42;;;14.20;;
77944;SDS011;67142;47.404;-1.384;2023-04-24T06:49:01;16.23;;;13.38;;
77944;SDS011;67142;47.404;-1.384;2023-04-24T06:51:27;17.55;;;14.82;;
77944;SDS011;67142;47.404;-1.384;2023-04-24T06:53:54;17.77;;;13.63;;
77944;SDS011;67142;47.404;-1.384;2023-04-24T06:56:22;15.65;;;14.00;;
77944;SDS011;67142;47.404;-1.384;2023-04-24T06:58:48;15.40;;;13.75;;
77944;SDS011;67142;47.404;-1.384;2023-04-24T07:01:15;15.60;;;14.10;;
77944;SDS011;67142;47.404;-1.384;2023-04-24T07:03:41;16.02;;;14.40;;
77944;SDS011;67142;47.404;-1.384;2023-04-24T07:06:07;17.17;;;15.00;;
77944;SDS011;67142;47.404;-1.384;2023-04-24T07:08:33;16.33;;;14.63;;
77944;SDS011;67142;47.404;-1.384;2023-04-24T07:10:59;15.90;;;14.30;;
77944;SDS011;67142;47.404;-1.384;2023-04-24T07:13:26;16.98;;;14.27;;
77944;SDS011;67142;47.404;-1.384;2023-04-24T07:15:53;15.77;;;14.38;;
77944;SDS011;67142;47.404;-1.384;2023-04-24T07:18:20;16.27;;;14.13;;
77944;SDS011;67142;47.404;-1.384;2023-04-24T07:20:46;16.38;;;14.57;;
77944;SDS011;67142;47.404;-1.384;2023-04-24T07:23:15;17.13;;;15.27;;
77944;SDS011;67142;47.404;-1.384;2023-04-24T07:25:41;15.52;;;14.18;;
77944;SDS011;67142;47.404;-1.384;2023-04-24T07:28:07;16.25;;;14.60;;
77944;SDS011;67142;47.404;-1.384;2023-04-24T07:30:33;20.40;;;13.90;;
77944;SDS011;67142;47.404;-1.384;2023-04-24T07:32:59;15.85;;;14.25;;
77944;SDS011;67142;47.404;-1.384;2023-04-24T07:35:26;16.17;;;13.80;;
77944;SDS011;67142;47.404;-1.384;2023-04-24T07:37:55;15.40;;;13.82;;
77944;SDS011;67142;47.404;-1.384;2023-04-24T07:40:21;18.08;;;14.23;;
77944;SDS011;67142;47.404;-1.384;2023-04-24T07:42:47;16.67;;;14.30;;
77944;SDS011;67142;47.404;-1.384;2023-04-24T07:45:14;17.67;;;14.68;;
77944;SDS011;67142;47.404;-1.384;2023-04-24T07:47:43;15.48;;;13.98;;
77944;SDS011;67142;47.404;-1.384;2023-04-24T07:50:10;16.65;;;14.63;;
77944;SDS011;67142;47.404;-1.384;2023-04-24T07:52:36;16.00;;;14.43;;
77944;SDS011;67142;47.404;-1.384;2023-04-24T07:55:02;16.47;;;14.80;;
77944;SDS011;67142;47.404;-1.384;2023-04-24T07:57:28;17.38;;;14.40;;
77944;SDS011;67142;47.404;-1.384;2023-04-24T07:59:54;16.17;;;14.70;;
77944;SDS011;67142;47.404;-1.384;2023-04-24T08:02:21;16.20;;;14.60;;
77944;SDS011;67142;47.404;-1.384;2023-04-24T08:04:51;16.55;;;14.95;;
77944;SDS011;67142;47.404;-1.384;2023-04-24T08:07:18;15.83;;;14.33;;
77944;SDS011;67142;47.404;-1.384;2023-04-24T08:09:44;17.17;;;14.35;;
77944;SDS011;67142;47.404;-1.384;2023-04-24T08:12:10;18.00;;;14.98;;
77944;SDS011;67142;47.404;-1.384;2023-04-24T08:14:36;17.00;;;15.05;;
77944;SDS011;67142;47.404;-1.384;2023-04-24T08:17:02;16.80;;;15.13;;
77944;SDS011;67142;47.404;-1.384;2023-04-24T08:19:28;16.93;;;15.17;;
77944;SDS011;67142;47.404;-1.384;2023-04-24T08:21:55;16.02;;;14.50;;
77944;SDS011;67142;47.404;-1.384;2023-04-24T08:24:21;16.63;;;15.02;;
77944;SDS011;67142;47.404;-1.384;2023-04-24T08:26:47;16.20;;;14.70;;
77944;SDS011;67142;47.404;-1.384;2023-04-24T08:29:18;17.15;;;15.55;;
77944;SDS011;67142;47.404;-1.384;2023-04-24T08:31:45;15.57;;;14.03;;
77944;SDS011;67142;47.404;-1.384;2023-04-24T08:34:11;15.70;;;14.20;;
77944;SDS011;67142;47.404;-1.384;2023-04-24T08:36:37;16.60;;;15.05;;
77944;SDS011;67142;47.404;-1.384;2023-04-24T08:39:05;16.50;;;14.88;;
77944;SDS011;67142;47.404;-1.384;2023-04-24T08:41:31;17.25;;;15.45;;
77944;SDS011;67142;47.404;-1.384;2023-04-24T08:43:59;17.20;;;14.60;;
77944;SDS011;67142;47.404;-1.384;2023-04-24T08:46:26;15.68;;;14.00;;
77944;SDS011;67142;47.404;-1.384;2023-04-24T08:48:52;17.10;;;15.32;;
77944;SDS011;67142;47.404;-1.384;2023-04-24T08:51:18;18.85;;;14.75;;
77944;SDS011;67142;47.404;-1.384;2023-04-24T08:53:45;17.20;;;14.93;;
77944;SDS011;67142;47.404;-1.384;2023-04-24T08:56:11;20.30;;;15.60;;
77944;SDS011;67142;47.404;-1.384;2023-04-24T08:58:38;16.70;;;15.07;;
77944;SDS011;67142;47.404;-1.384;2023-04-24T09:01:04;17.92;;;15.48;;
77944;SDS011;67142;47.404;-1.384;2023-04-24T09:03:30;16.15;;;14.48;;
77944;SDS011;67142;47.404;-1.384;2023-04-24T09:05:57;17.10;;;14.90;;
77944;SDS011;67142;47.404;-1.384;2023-04-24T09:08:24;16.57;;;14.93;;
77944;SDS011;67142;47.404;-1.384;2023-04-24T09:10:50;16.90;;;15.00;;
77944;SDS011;67142;47.404;-1.384;2023-04-24T09:13:17;18.40;;;15.35;;
77944;SDS011;67142;47.404;-1.384;2023-04-24T09:15:44;19.10;;;14.65;;
77944;SDS011;67142;47.404;-1.384;2023-04-24T09:18:10;16.58;;;14.88;;
77944;SDS011;67142;47.404;-1.384;2023-04-24T09:23:21;21.02;;;15.10;;
77944;SDS011;67142;47.404;-1.384;2023-04-24T09:25:48;23.23;;;15.95;;
77944;SDS011;67142;47.404;-1.384;2023-04-24T09:28:22;17.88;;;15.77;;
77944;SDS011;67142;47.404;-1.384;2023-04-24T09:31:01;18.58;;;15.20;;
77944;SDS011;67142;47.404;-1.384;2023-04-24T09:33:27;18.63;;;14.73;;
77944;SDS011;67142;47.404;-1.384;2023-04-24T09:35:53;19.45;;;15.27;;
77944;SDS011;67142;47.404;-1.384;2023-04-24T09:38:20;19.98;;;15.75;;
77944;SDS011;67142;47.404;-1.384;2023-04-24T09:40:58;19.98;;;14.65;;
77944;SDS011;67142;47.404;-1.384;2023-04-24T09:43:25;20.73;;;15.00;;
77944;SDS011;67142;47.404;-1.384;2023-04-24T09:45:52;17.90;;;14.30;;
77944;SDS011;67142;47.404;-1.384;2023-04-24T09:48:29;22.17;;;15.15;;
77944;SDS011;67142;47.404;-1.384;2023-04-24T09:50:55;18.30;;;14.75;;
77944;SDS011;67142;47.404;-1.384;2023-04-24T09:53:23;17.73;;;14.35;;
77944;SDS011;67142;47.404;-1.384;2023-04-24T09:55:49;19.67;;;14.82;;
77944;SDS011;67142;47.404;-1.384;2023-04-24T09:58:18;16.63;;;14.10;;
77944;SDS011;67142;47.404;-1.384;2023-04-24T10:00:44;17.83;;;15.02;;
77944;SDS011;67142;47.404;-1.384;2023-04-24T10:03:11;19.38;;;16.48;;
77944;SDS011;67142;47.404;-1.384;2023-04-24T10:05:37;23.73;;;16.25;;
77944;SDS011;67142;47.404;-1.384;2023-04-24T10:08:07;19.45;;;15.68;;
77944;SDS011;67142;47.404;-1.384;2023-04-24T10:10:34;17.80;;;15.70;;
77944;SDS011;67142;47.404;-1.384;2023-04-24T10:13:01;20.05;;;15.95;;
77944;SDS011;67142;47.404;-1.384;2023-04-24T10:15:28;20.45;;;16.20;;
77944;SDS011;67142;47.404;-1.384;2023-04-24T10:17:55;22.08;;;16.60;;
77944;SDS011;67142;47.404;-1.384;2023-04-24T10:20:24;18.63;;;15.77;;
77944;SDS011;67142;47.404;-1.384;2023-04-24T10:22:51;19.50;;;15.50;;
77944;SDS011;67142;47.404;-1.384;2023-04-24T10:25:21;16.80;;;15.07;;
77944;SDS011;67142;47.404;-1.384;2023-04-24T10:27:47;18.85;;;15.70;;
77944;SDS011;67142;47.404;-1.384;2023-04-24T10:30:14;18.55;;;15.68;;
77944;SDS011;67142;47.404;-1.384;2023-04-24T10:32:40;16.80;;;14.98;;
77944;SDS011;67142;47.404;-1.384;2023-04-24T10:35:07;16.40;;;14.37;;
77944;SDS011;67142;47.404;-1.384;2023-04-24T10:37:40;21.55;;;14.50;;
77944;SDS011;67142;47.404;-1.384;2023-04-24T10:40:08;16.30;;;14.38;;
77944;SDS011;67142;47.404;-1.384;2023-04-24T10:42:35;19.75;;;14.27;;
77944;SDS011;67142;47.404;-1.384;2023-04-24T10:45:07;19.48;;;14.32;;
77944;SDS011;67142;47.404;-1.384;2023-04-24T10:47:42;20.80;;;14.53;;
77944;SDS011;67142;47.404;-1.384;2023-04-24T10:50:12;18.33;;;14.82;;
77944;SDS011;67142;47.404;-1.384;2023-04-24T10:52:44;16.52;;;14.50;;
77944;SDS011;67142;47.404;-1.384;2023-04-24T10:55:12;17.95;;;14.38;;
77944;SDS011;67142;47.404;-1.384;2023-04-24T10:57:38;17.05;;;14.88;;
77944;SDS011;67142;47.404;-1.384;2023-04-24T11:02:37;15.43;;;13.82;;
77944;SDS011;67142;47.404;-1.384;2023-04-24T11:05:05;17.35;;;14.13;;
77944;SDS011;67142;47.404;-1.384;2023-04-24T11:08:09;18.88;;;14.10;;
77944;SDS011;67142;47.404;-1.384;2023-04-24T11:10:26;16.33;;;14.25;;
77944;SDS011;67142;47.404;-1.384;2023-04-24T11:12:52;16.67;;;13.53;;
77944;SDS011;67142;47.404;-1.384;2023-04-24T11:15:18;15.60;;;13.90;;
77944;SDS011;67142;47.404;-1.384;2023-04-24T11:17:45;15.45;;;13.77;;
77944;SDS011;67142;47.404;-1.384;2023-04-24T11:20:11;21.80;;;14.20;;
77944;SDS011;67142;47.404;-1.384;2023-04-24T11:22:42;15.60;;;13.95;;
77944;SDS011;67142;47.404;-1.384;2023-04-24T11:25:08;19.03;;;14.60;;
77944;SDS011;67142;47.404;-1.384;2023-04-24T11:27:40;16.75;;;14.90;;
77944;SDS011;67142;47.404;-1.384;2023-04-24T11:30:07;18.00;;;14.45;;
77944;SDS011;67142;47.404;-1.384;2023-04-24T11:37:44;16.57;;;15.00;;
77944;SDS011;67142;47.404;-1.384;2023-04-24T11:40:11;19.83;;;15.25;;
77944;SDS011;67142;47.404;-1.384;2023-04-24T11:42:38;19.00;;;15.00;;
77944;SDS011;67142;47.404;-1.384;2023-04-24T11:45:08;19.73;;;14.80;;
77944;SDS011;67142;47.404;-1.384;2023-04-24T11:47:35;19.63;;;16.27;;
77944;SDS011;67142;47.404;-1.384;2023-04-24T11:50:01;19.93;;;16.57;;
77944;SDS011;67142;47.404;-1.384;2023-04-24T11:52:28;18.98;;;16.38;;
77944;SDS011;67142;47.404;-1.384;2023-04-24T11:54:54;19.20;;;16.00;;
77944;SDS011;67142;47.404;-1.384;2023-04-24T11:57:21;18.60;;;15.02;;
77944;SDS011;67142;47.404;-1.384;2023-04-24T11:59:47;19.30;;;15.20;;
77944;SDS011;67142;47.404;-1.384;2023-04-24T12:02:23;16.67;;;14.83;;
77944;SDS011;67142;47.404;-1.384;2023-04-24T12:04:49;16.70;;;15.05;;
77944;SDS011;67142;47.404;-1.384;2023-04-24T12:07:15;21.48;;;16.50;;
77944;SDS011;67142;47.404;-1.384;2023-04-24T12:12:08;16.83;;;14.90;;
77944;SDS011;67142;47.404;-1.384;2023-04-24T12:14:53;19.03;;;15.03;;
77944;SDS011;67142;47.404;-1.384;2023-04-24T12:17:29;18.10;;;16.20;;
77944;SDS011;67142;47.404;-1.384;2023-04-24T12:19:59;19.27;;;16.35;;
77944;SDS011;67142;47.404;-1.384;2023-04-24T12:22:26;19.63;;;16.30;;
77944;SDS011;67142;47.404;-1.384;2023-04-24T12:25:01;18.73;;;16.30;;
77944;SDS011;67142;47.404;-1.384;2023-04-24T12:27:29;17.87;;;15.97;;
77944;SDS011;67142;47.404;-1.384;2023-04-24T12:29:56;20.95;;;16.60;;
77944;SDS011;67142;47.404;-1.384;2023-04-24T12:32:22;20.48;;;17.73;;
77944;SDS011;67142;47.404;-1.384;2023-04-24T12:34:50;18.27;;;16.40;;
77944;SDS011;67142;47.404;-1.384;2023-04-24T12:37:16;17.10;;;15.30;;
77944;SDS011;67142;47.404;-1.384;2023-04-24T12:42:28;18.85;;;16.35;;
77944;SDS011;67142;47.404;-1.384;2023-04-24T12:45:12;18.00;;;16.13;;
77944;SDS011;67142;47.404;-1.384;2023-04-24T12:47:39;17.55;;;15.85;;
77944;SDS011;67142;47.404;-1.384;2023-04-24T12:50:06;17.50;;;15.68;;
77944;SDS011;67142;47.404;-1.384;2023-04-24T12:52:32;18.33;;;15.07;;
77944;SDS011;67142;47.404;-1.384;2023-04-24T12:54:58;16.08;;;14.50;;
77944;SDS011;67142;47.404;-1.384;2023-04-24T12:57:25;16.38;;;14.68;;
77944;SDS011;67142;47.404;-1.384;2023-04-24T12:59:55;18.77;;;14.77;;
77944;SDS011;67142;47.404;-1.384;2023-04-24T13:02:25;16.85;;;15.15;;
77944;SDS011;67142;47.404;-1.384;2023-04-24T13:04:52;20.73;;;17.10;;
77944;SDS011;67142;47.404;-1.384;2023-04-24T13:07:18;18.38;;;15.77;;
77944;SDS011;67142;47.404;-1.384;2023-04-24T13:09:45;20.23;;;17.38;;
77944;SDS011;67142;47.404;-1.384;2023-04-24T13:12:11;18.02;;;15.77;;
77944;SDS011;67142;47.404;-1.384;2023-04-24T13:14:37;16.92;;;14.73;;
77944;SDS011;67142;47.404;-1.384;2023-04-24T13:17:04;16.27;;;14.67;;
77944;SDS011;67142;47.404;-1.384;2023-04-24T13:19:34;18.05;;;16.15;;
77944;SDS011;67142;47.404;-1.384;2023-04-24T13:22:00;18.13;;;16.52;;
77944;SDS011;67142;47.404;-1.384;2023-04-24T13:24:26;18.70;;;15.27;;
77944;SDS011;67142;47.404;-1.384;2023-04-24T13:26:53;16.95;;;14.57;;
77944;SDS011;67142;47.404;-1.384;2023-04-24T13:29:19;17.13;;;15.33;;
77944;SDS011;67142;47.404;-1.384;2023-04-24T13:31:50;16.23;;;14.73;;
77944;SDS011;67142;47.404;-1.384;2023-04-24T13:34:16;16.92;;;14.70;;
77944;SDS011;67142;47.404;-1.384;2023-04-24T13:36:42;15.40;;;13.85;;
77944;SDS011;67142;47.404;-1.384;2023-04-24T13:39:09;16.58;;;14.77;;
77944;SDS011;67142;47.404;-1.384;2023-04-24T13:41:35;16.93;;;15.30;;
77944;SDS011;67142;47.404;-1.384;2023-04-24T13:44:02;18.00;;;16.33;;
77944;SDS011;67142;47.404;-1.384;2023-04-24T13:46:28;18.02;;;16.25;;
77944;SDS011;67142;47.404;-1.384;2023-04-24T13:48:55;17.88;;;15.40;;
77944;SDS011;67142;47.404;-1.384;2023-04-24T13:51:22;18.85;;;16.42;;
77944;SDS011;67142;47.404;-1.384;2023-04-24T13:53:48;19.53;;;16.60;;
77944;SDS011;67142;47.404;-1.384;2023-04-24T13:56:14;19.33;;;17.40;;
77944;SDS011;67142;47.404;-1.384;2023-04-24T13:58:40;19.38;;;17.50;;
77944;SDS011;67142;47.404;-1.384;2023-04-24T14:01:06;18.80;;;16.85;;
77944;SDS011;67142;47.404;-1.384;2023-04-24T14:03:33;18.45;;;16.55;;
77944;SDS011;67142;47.404;-1.384;2023-04-24T14:05:59;18.60;;;16.80;;
77944;SDS011;67142;47.404;-1.384;2023-04-24T14:08:25;17.50;;;15.90;;
77944;SDS011;67142;47.404;-1.384;2023-04-24T14:10:51;20.23;;;16.48;;
77944;SDS011;67142;47.404;-1.384;2023-04-24T14:13:17;18.80;;;16.80;;
77944;SDS011;67142;47.404;-1.384;2023-04-24T14:15:43;18.15;;;16.52;;
77944;SDS011;67142;47.404;-1.384;2023-04-24T14:18:09;16.83;;;15.33;;
77944;SDS011;67142;47.404;-1.384;2023-04-24T14:20:35;17.35;;;15.77;;
77944;SDS011;67142;47.404;-1.384;2023-04-24T14:23:01;19.17;;;15.23;;